Aérodrome :
LOGIN :

S'inscrire | Disclaimer

   EN    FR    IT 

 










Légende :    VFR   VFR Marginal   IFR   IFR Intensif   IFR Très Intensif
Visi : 
Plafond : 
>= 8 km
>= 3000ft
5 à 8 km
1000 à 3000 ft
1500m à 5 km
500 à 1000 ft
800 à 1500m
200 à 500 ft
< 800m
< 200 ft
Symboles :   Orages  Brouillard  Fortes neiges  Fortes précipitations  Vent > 20 kt
SIGMETs :   Divers  Orages  Givrage  Turbulence  Onde Orograph.  Cendres Volcan.







- Altitude de l'aérodrome : 255 ft


ENGC - Gullfaks C oil platform

DERNIER METAR :
  • 190150Z 32010KT 9999 FEW030 SCT040 BKN210 09/04 Q1028 W08/S4

METARs EXPIRÉS :
  • 190050Z 32012KT 9999 FEW030 BKN040 09/04 Q1028 W08/S4
  • 182350Z 33012KT 9999 FEW030 SCT150 09/03 Q1028 W08/S4

TAF TAF ENGC
Valide du 19 à 00h jusqu'au 20 à 00h UTC


1900/1924 35015KT 9999 BKN030
BECMG 1901/1903 28012KT
BECMG 1909/1912 18022KT BKN010
TEMPO 1909/1915 3000 DZRA BR BKN006
BECMG 1915/1917 25020KT BKN005
PROB40 1915/1924 0200 FG VV001
Pas de NOTAMs connus pour ce terrain.



MET'MAP, la Météo Aéronautique d'un coup d'oeil ! - Copyright ORBIFLY Décembre 2007 - Disclaimer

ORBIFLY MET'MAP TEAM :

Programmation & Développement : Alexandra Zaïnal
Conception & Développement : Baudouin d'Aumeries
Co-Programmation & Développement : Marc-Olivier Méhu
Soutien technique & logistique : Manuel Goepfert

Contact : metmap@orbifly.com




SOURCES & CREDITS :

   NOAA